Mindoro — SVAS8 — position and weather

sailwx.info

Track history (hours):
 
Tides and Currents Weather Stations Pressure Air Temp Water Temp Dewpoint Dewpoint Depression Visibility Wind Speed Wind Dir Waves Ship Positions

Mindoro

Last reported at 2015-Jan-13 01:08 UTC. Time now 2015-Jan-28 14:17 UTC.
Position N 01°58' E 102°15'.
Warning: this ship's position is 15 days out of date.

Length 245 m; draft 8.6 m.

Type: Tanker. MMSI: 240924000.

Date/timePositionNaut miles runAvg speedWind from/ knotsBaromVisibWave heightAir tempDewpointWater temp
2015-Jan-13 01:08N 01°58' E 102°15'710.6
2015-Jan-13 00:26N 01°54' E 102°21'1111.8
2015-Jan-12 23:32N 01°50' E 102°31'1312.1
2015-Jan-12 22:25N 01°44' E 102°43'7711.2
2015-Jan-12 15:32N 01°13' E 103°53'3 2.3
2015-Jan-12 14:27N 01°15' E 103°54'0 0.0
2015-Jan-12 13:27N 01°15' E 103°54'0 0.0
2015-Jan-12 12:33N 01°15' E 103°54'0 0.0
2015-Jan-12 11:27N 01°15' E 103°54'0 0.1
2015-Jan-12 10:33N 01°15' E 103°54'0 0.0
2015-Jan-12 09:30N 01°15' E 103°54'0 0.1
2015-Jan-12 08:30N 01°15' E 103°54'0 0.0
2015-Jan-12 07:18N 01°15' E 103°54'0 0.0
2015-Jan-12 06:21N 01°15' E 103°54'0 0.0
2015-Jan-12 04:30N 01°15' E 103°54'0 0.0
2015-Jan-12 02:33N 01°15' E 103°54'0 0.0
2015-Jan-12 01:33N 01°15' E 103°54'0 0.0
2015-Jan-12 00:33N 01°15' E 103°54'0 0.0
2015-Jan-11 23:33N 01°15' E 103°54'0 0.0
2015-Jan-11 22:09N 01°15' E 103°54'0 0.0
2015-Jan-11 21:21N 01°15' E 103°54'0 0.0
2015-Jan-11 20:27N 01°15' E 103°54'0 0.0
2015-Jan-11 19:33N 01°15' E 103°54'0 0.0
2015-Jan-11 17:33N 01°15' E 103°54'0 0.1
2015-Jan-11 16:21N 01°15' E 103°54'0 0.0
2015-Jan-11 14:33N 01°15' E 103°54'0 0.0
2015-Jan-11 13:18N 01°15' E 103°54'0 0.2
2015-Jan-11 12:21N 01°15' E 103°54'0 0.0
2015-Jan-11 11:33N 01°15' E 103°54'0 0.1
2015-Jan-11 10:27N 01°15' E 103°54'2 2.5
2015-Jan-11 09:33N 01°15' E 103°56'5 4.8
2015-Jan-11 08:33N 01°16' E 104°01'6 6.3
2015-Jan-11 07:33N 01°16' E 104°07'7 6.8
2015-Jan-11 06:32N 01°17' E 104°14'  
Track history (hours):
 
Tides and Currents Weather Stations Pressure Air Temp Water Temp Dewpoint Dewpoint Depression Visibility Wind Speed Wind Dir Waves Ship Positions

Mindoro

Last reported at 2015-Jan-13 01:08 UTC. Time now 2015-Jan-28 14:17 UTC.
Position N 01°58' E 102°15'.
Warning: this ship's position is 15 days out of date.

Length 245 m; draft 8.6 m.

Type: Tanker. MMSI: 240924000.

Date/timePositionNaut miles runAvg speedWind from/ knotsBaromVisibWave heightAir tempDewpointWater temp
2015-Jan-13 01:08N 01°58' E 102°15'710.6
2015-Jan-13 00:26N 01°54' E 102°21'1111.8
2015-Jan-12 23:32N 01°50' E 102°31'1312.1
2015-Jan-12 22:25N 01°44' E 102°43'7711.2
2015-Jan-12 15:32N 01°13' E 103°53'3 2.3
2015-Jan-12 14:27N 01°15' E 103°54'0 0.0
2015-Jan-12 13:27N 01°15' E 103°54'0 0.0
2015-Jan-12 12:33N 01°15' E 103°54'0 0.0
2015-Jan-12 11:27N 01°15' E 103°54'0 0.1
2015-Jan-12 10:33N 01°15' E 103°54'0 0.0
2015-Jan-12 09:30N 01°15' E 103°54'0 0.1
2015-Jan-12 08:30N 01°15' E 103°54'0 0.0
2015-Jan-12 07:18N 01°15' E 103°54'0 0.0
2015-Jan-12 06:21N 01°15' E 103°54'0 0.0
2015-Jan-12 04:30N 01°15' E 103°54'0 0.0
2015-Jan-12 02:33N 01°15' E 103°54'0 0.0
2015-Jan-12 01:33N 01°15' E 103°54'0 0.0
2015-Jan-12 00:33N 01°15' E 103°54'0 0.0
2015-Jan-11 23:33N 01°15' E 103°54'0 0.0
2015-Jan-11 22:09N 01°15' E 103°54'0 0.0
2015-Jan-11 21:21N 01°15' E 103°54'0 0.0
2015-Jan-11 20:27N 01°15' E 103°54'0 0.0
2015-Jan-11 19:33N 01°15' E 103°54'0 0.0
2015-Jan-11 17:33N 01°15' E 103°54'0 0.1
2015-Jan-11 16:21N 01°15' E 103°54'0 0.0
2015-Jan-11 14:33N 01°15' E 103°54'0 0.0
2015-Jan-11 13:18N 01°15' E 103°54'0 0.2
2015-Jan-11 12:21N 01°15' E 103°54'0 0.0
2015-Jan-11 11:33N 01°15' E 103°54'0 0.1
2015-Jan-11 10:27N 01°15' E 103°54'2 2.5
2015-Jan-11 09:33N 01°15' E 103°56'5 4.8
2015-Jan-11 08:33N 01°16' E 104°01'6 6.3
2015-Jan-11 07:33N 01°16' E 104°07'7 6.8
2015-Jan-11 06:32N 01°17' E 104°14'  

Dump ship's entire track history